createdAt,value
2022-08-05T00:01:48.606Z,21.59
2022-08-05T00:04:08.361Z,21.60
2022-08-05T00:06:33.201Z,21.47
2022-08-05T00:08:58.305Z,21.38
2022-08-05T00:11:30.508Z,21.25
2022-08-05T00:13:53.017Z,21.37
2022-08-05T00:16:17.421Z,21.55
2022-08-05T00:18:44.236Z,21.69
2022-08-05T00:21:10.143Z,21.72
2022-08-05T00:23:46.470Z,21.52
2022-08-05T00:26:02.866Z,21.53
2022-08-05T00:28:29.425Z,21.64
2022-08-05T00:30:55.606Z,21.67
2022-08-05T00:34:55.634Z,21.69
2022-08-05T00:36:16.139Z,21.44
2022-08-05T00:38:14.688Z,21.37
2022-08-05T00:40:41.064Z,21.26
2022-08-05T00:43:07.822Z,20.97
2022-08-05T00:45:38.801Z,20.75
2022-08-05T00:48:05.605Z,20.68
2022-08-05T00:50:26.606Z,20.61
2022-08-05T00:52:53.473Z,20.61
2022-08-05T00:55:19.321Z,20.59
2022-08-05T00:57:58.508Z,20.58
2022-08-05T01:00:13.310Z,20.54
2022-08-05T01:02:38.581Z,20.56
2022-08-05T01:05:05.078Z,20.64
2022-08-05T01:07:31.750Z,20.52
2022-08-05T01:09:57.750Z,20.59
2022-08-05T01:12:24.117Z,20.58
2022-08-05T01:14:50.478Z,20.41
2022-08-05T01:17:16.893Z,20.19
2022-08-05T01:20:00.681Z,20.21
2022-08-05T01:22:10.852Z,20.07
2022-08-05T01:24:36.026Z,19.99
2022-08-05T01:27:17.904Z,20.08
2022-08-05T01:29:30.773Z,20.11
2022-08-05T01:31:56.825Z,19.84
2022-08-05T01:34:26.850Z,19.78
2022-08-05T01:36:49.571Z,19.80
2022-08-05T01:39:16.094Z,19.83
2022-08-05T01:41:44.369Z,19.98
2022-08-05T01:44:09.905Z,20.12
2022-08-05T01:46:41.476Z,20.31
2022-08-05T01:49:01.552Z,20.35
2022-08-05T01:51:29.395Z,20.20
2022-08-05T01:53:56.961Z,20.08
2022-08-05T01:58:13.077Z,19.94
2022-08-05T01:58:47.357Z,19.88
2022-08-05T02:01:13.497Z,19.86
2022-08-05T02:03:39.889Z,19.73
2022-08-05T02:06:37.035Z,19.70
2022-08-05T02:08:32.636Z,19.92
2022-08-05T02:10:59.140Z,20.07
2022-08-05T02:13:25.502Z,20.22
2022-08-05T02:15:51.883Z,20.20
2022-08-05T02:18:32.691Z,19.94
2022-08-05T02:20:44.771Z,19.81
2022-08-05T02:23:11.146Z,19.80
2022-08-05T02:25:49.553Z,20.00
2022-08-05T02:28:08.926Z,20.13
2022-08-05T02:30:30.278Z,20.03
2022-08-05T02:32:56.655Z,19.97
2022-08-05T02:35:28.259Z,19.83
2022-08-05T02:37:53.883Z,19.58
2022-08-05T02:40:15.796Z,19.65
2022-08-05T02:42:42.178Z,19.47
2022-08-05T02:45:08.592Z,19.38
2022-08-05T02:47:58.722Z,19.28
2022-08-05T02:50:01.322Z,19.25
2022-08-05T02:52:30.465Z,19.37
2022-08-05T02:54:54.113Z,19.53
2022-08-05T02:58:10.281Z,19.42
2022-08-05T02:59:50.111Z,19.28
2022-08-05T03:02:13.362Z,19.23
2022-08-05T03:04:39.719Z,19.31
2022-08-05T03:07:06.143Z,19.42
2022-08-05T03:09:37.661Z,19.31
2022-08-05T03:11:58.949Z,19.15
2022-08-05T03:14:25.326Z,18.95
2022-08-05T03:16:53.469Z,18.82
2022-08-05T03:19:33.126Z,18.96
2022-08-05T03:21:49.554Z,19.15
2022-08-05T03:24:10.919Z,19.01
2022-08-05T03:26:37.436Z,18.94
2022-08-05T03:29:03.825Z,18.89
2022-08-05T03:31:56.549Z,18.75
2022-08-05T03:33:56.547Z,18.79
2022-08-05T03:36:29.776Z,18.85
2022-08-05T03:38:52.564Z,18.80
2022-08-05T03:41:15.713Z,18.76
2022-08-05T03:44:09.023Z,18.76
2022-08-05T03:46:08.449Z,18.72
2022-08-05T03:48:35.073Z,18.63
2022-08-05T03:52:35.165Z,18.56
2022-08-05T03:55:51.169Z,18.57
2022-08-05T03:56:10.514Z,18.78
2022-08-05T03:58:20.304Z,18.85
2022-08-05T04:00:51.379Z,18.96
2022-08-05T04:03:26.597Z,18.88
2022-08-05T04:05:40.183Z,18.83
2022-08-05T04:08:14.828Z,18.92
2022-08-05T04:10:37.743Z,18.88
2022-08-05T04:12:58.974Z,18.89
2022-08-05T04:15:24.902Z,18.88
2022-08-05T04:17:56.258Z,18.95
2022-08-05T04:20:17.677Z,19.04
2022-08-05T04:22:44.039Z,19.23
2022-08-05T04:25:10.891Z,19.30
2022-08-05T04:27:43.606Z,19.37
2022-08-05T04:30:03.720Z,19.46
2022-08-05T04:32:30.996Z,19.46
2022-08-05T04:34:57.613Z,19.51
2022-08-05T04:37:23.085Z,19.55
2022-08-05T04:39:52.738Z,19.72
2022-08-05T04:42:15.196Z,19.85
2022-08-05T04:44:41.657Z,19.97
2022-08-05T04:47:08.772Z,20.17
2022-08-05T04:50:02.025Z,20.33
2022-08-05T04:52:00.891Z,20.60
2022-08-05T04:54:27.284Z,21.10
2022-08-05T04:56:56.298Z,21.52
2022-08-05T04:59:24.015Z,22.12
2022-08-05T05:02:07.624Z,22.48
2022-08-05T05:04:12.789Z,22.72
2022-08-05T05:06:44.924Z,22.87
2022-08-05T05:09:05.918Z,23.03
2022-08-05T05:11:41.562Z,23.09
2022-08-05T05:13:58.749Z,23.36
2022-08-05T05:16:30.413Z,25.28
2022-08-05T05:19:09.193Z,27.01
2022-08-05T05:21:18.082Z,27.39
2022-08-05T05:24:04.050Z,27.05
2022-08-05T05:26:10.864Z,26.01
2022-08-05T05:28:42.661Z,24.97
2022-08-05T05:31:05.631Z,25.32
2022-08-05T05:33:30.265Z,26.66
2022-08-05T05:35:56.622Z,27.41
2022-08-05T05:38:27.502Z,27.08
2022-08-05T05:40:51.314Z,27.34
2022-08-05T05:43:15.844Z,28.17
2022-08-05T05:45:42.626Z,28.66
2022-08-05T05:48:08.927Z,28.94
2022-08-05T05:50:35.039Z,29.00
2022-08-05T05:53:01.475Z,28.82
2022-08-05T05:55:52.363Z,29.30
2022-08-05T05:57:54.236Z,28.60
2022-08-05T06:00:20.729Z,28.02
2022-08-05T06:02:47.207Z,27.30
2022-08-05T06:05:16.445Z,27.80
2022-08-05T06:07:42.010Z,28.67
2022-08-05T06:10:10.272Z,29.09
2022-08-05T06:12:32.751Z,29.23
2022-08-05T06:14:59.132Z,28.99
2022-08-05T06:17:31.087Z,29.44
2022-08-05T06:19:56.742Z,29.43
2022-08-05T06:22:18.365Z,28.54
2022-08-05T06:24:48.280Z,28.81
2022-08-05T06:28:09.409Z,28.89
2022-08-05T06:29:46.644Z,28.81
2022-08-05T06:32:03.905Z,29.58
2022-08-05T06:34:30.271Z,29.22
2022-08-05T06:36:57.961Z,29.30
2022-08-05T06:39:24.620Z,29.11
2022-08-05T06:41:49.419Z,29.24
2022-08-05T06:44:15.797Z,29.91
2022-08-05T06:46:42.195Z,30.41
2022-08-05T06:49:08.685Z,30.36
2022-08-05T06:51:35.046Z,30.11
2022-08-05T06:54:01.695Z,29.77
2022-08-05T06:56:27.870Z,29.88
2022-08-05T06:58:54.219Z,29.82
2022-08-05T07:01:21.059Z,29.59
2022-08-05T07:03:47.015Z,30.26
2022-08-05T07:06:14.302Z,30.22
2022-08-05T07:08:39.911Z,30.50
2022-08-05T07:11:06.298Z,30.25
2022-08-05T07:13:57.147Z,30.47
2022-08-05T07:16:01.174Z,30.23
2022-08-05T07:18:30.253Z,30.85
2022-08-05T07:20:51.881Z,30.69
2022-08-05T07:23:26.448Z,31.00
2022-08-05T07:25:56.032Z,31.06
2022-08-05T07:28:17.117Z,30.74
2022-08-05T07:30:39.109Z,31.16
2022-08-05T07:33:05.499Z,30.94
2022-08-05T07:36:03.137Z,30.54
2022-08-05T07:37:56.764Z,30.20
2022-08-05T07:40:32.342Z,30.16
2022-08-05T07:42:49.582Z,30.75
2022-08-05T07:45:15.965Z,31.55
2022-08-05T07:47:42.752Z,31.91
2022-08-05T07:50:08.742Z,32.23
2022-08-05T07:52:35.124Z,32.76
2022-08-05T07:55:01.509Z,32.94
2022-08-05T07:57:51.163Z,33.45
2022-08-05T07:59:54.362Z,33.86
2022-08-05T08:02:20.755Z,33.73
2022-08-05T08:04:47.308Z,33.63
2022-08-05T08:07:13.567Z,33.83
2022-08-05T08:09:39.949Z,34.47
2022-08-05T08:12:14.681Z,34.78
2022-08-05T08:14:32.702Z,34.62
2022-08-05T08:16:59.074Z,33.85
2022-08-05T08:20:21.453Z,34.06
2022-08-05T08:21:51.825Z,33.74
2022-08-05T08:24:18.285Z,33.67
2022-08-05T08:26:44.675Z,33.96
2022-08-05T08:30:03.585Z,34.36
2022-08-05T08:31:37.676Z,34.62
2022-08-05T08:34:04.062Z,34.87
2022-08-05T08:36:47.694Z,34.96
2022-08-05T08:38:57.388Z,34.90
2022-08-05T08:41:26.209Z,35.82
2022-08-05T08:45:18.598Z,35.57
2022-08-05T08:46:16.238Z,35.53
2022-08-05T08:49:07.540Z,35.53
2022-08-05T08:51:54.566Z,35.30
2022-08-05T08:53:35.194Z,35.22
2022-08-05T08:56:04.879Z,35.81
2022-08-05T08:58:43.683Z,36.32
2022-08-05T09:00:54.496Z,34.76
2022-08-05T09:03:20.969Z,35.03
2022-08-05T09:06:07.941Z,35.61
2022-08-05T09:08:13.615Z,36.40
2022-08-05T09:10:40.218Z,36.62
2022-08-05T09:13:06.422Z,36.66
2022-08-05T09:15:37.040Z,37.16
2022-08-05T09:17:59.154Z,37.27
2022-08-05T09:20:37.491Z,37.19
2022-08-05T09:22:52.089Z,36.75
2022-08-05T09:25:23.832Z,36.69
2022-08-05T09:28:04.669Z,37.04
2022-08-05T09:30:16.494Z,37.45
2022-08-05T09:32:46.221Z,36.83
2022-08-05T09:35:04.021Z,37.19
2022-08-05T09:38:12.689Z,37.84
2022-08-05T09:39:56.941Z,37.77
2022-08-05T09:42:28.453Z,37.87
2022-08-05T09:44:50.507Z,37.66
2022-08-05T09:47:16.024Z,37.90
2022-08-05T09:49:55.001Z,37.84
2022-08-05T09:52:08.767Z,38.15
2022-08-05T09:54:35.195Z,37.58
2022-08-05T09:57:02.031Z,37.13
2022-08-05T09:59:27.990Z,37.53
2022-08-05T10:01:57.832Z,38.18
2022-08-05T10:04:29.357Z,38.57
2022-08-05T10:06:54.847Z,36.93
2022-08-05T10:09:25.338Z,36.90
2022-08-05T10:11:39.835Z,36.55
2022-08-05T10:14:06.195Z,36.83
2022-08-05T10:16:33.866Z,37.40
2022-08-05T10:18:58.985Z,37.40
2022-08-05T10:21:25.375Z,37.68
2022-08-05T10:23:59.445Z,38.25
2022-08-05T10:26:18.222Z,37.45
2022-08-05T10:28:45.047Z,37.39
2022-08-05T10:32:48.339Z,37.15
2022-08-05T10:33:37.347Z,37.21
2022-08-05T10:36:03.734Z,36.63
2022-08-05T10:38:33.276Z,36.45
2022-08-05T10:40:57.900Z,36.81
2022-08-05T10:43:23.291Z,36.82
2022-08-05T10:45:49.267Z,37.41
2022-08-05T10:48:30.043Z,37.89
2022-08-05T10:50:42.025Z,37.74
2022-08-05T10:53:08.415Z,38.35
2022-08-05T10:56:03.583Z,38.10
2022-08-05T10:58:01.182Z,38.27
2022-08-05T11:00:27.551Z,37.78
2022-08-05T11:02:54.108Z,37.74
2022-08-05T11:05:20.446Z,37.18
2022-08-05T11:08:03.181Z,36.76
2022-08-05T11:10:13.234Z,36.47
2022-08-05T11:12:41.193Z,36.29
2022-08-05T11:15:11.825Z,36.96
2022-08-05T11:17:57.401Z,36.37
2022-08-05T11:20:10.048Z,36.38
2022-08-05T11:22:25.217Z,36.79
2022-08-05T11:25:16.563Z,36.75
2022-08-05T11:27:17.985Z,36.64
2022-08-05T11:29:44.386Z,36.17
2022-08-05T11:32:10.774Z,35.46
2022-08-05T11:34:37.144Z,36.20
2022-08-05T11:37:06.144Z,36.43
2022-08-05T11:39:29.983Z,36.49
2022-08-05T11:42:04.615Z,36.53
2022-08-05T11:44:53.029Z,36.59
2022-08-05T11:46:58.119Z,36.62
2022-08-05T11:49:15.475Z,36.75
2022-08-05T11:51:44.668Z,36.35
2022-08-05T11:54:08.259Z,35.75
2022-08-05T11:56:40.661Z,36.09
2022-08-05T11:59:01.231Z,35.92
2022-08-05T12:01:27.642Z,35.55
2022-08-05T12:03:55.487Z,35.68
2022-08-05T12:06:20.396Z,35.33
2022-08-05T12:08:49.843Z,34.16
2022-08-05T12:11:17.249Z,33.93
2022-08-05T12:13:48.763Z,33.69
2022-08-05T12:16:14.894Z,34.29
2022-08-05T12:18:33.158Z,35.06
2022-08-05T12:20:58.797Z,35.41
2022-08-05T12:23:25.233Z,35.60
2022-08-05T12:25:51.627Z,35.64
2022-08-05T12:28:18.102Z,35.74
2022-08-05T12:30:45.751Z,35.96
2022-08-05T12:33:27.443Z,36.09
2022-08-05T12:35:39.835Z,36.00
2022-08-05T12:38:03.626Z,35.50
2022-08-05T12:40:30.046Z,35.13
2022-08-05T12:42:56.405Z,35.05
2022-08-05T12:45:22.787Z,35.22
2022-08-05T12:48:17.206Z,35.26
2022-08-05T12:50:15.566Z,35.59
2022-08-05T12:52:42.808Z,35.73
2022-08-05T12:55:08.295Z,35.96
2022-08-05T12:58:49.881Z,36.28
2022-08-05T13:01:57.606Z,36.29
2022-08-05T13:02:30.579Z,36.25
2022-08-05T13:04:54.706Z,36.04
2022-08-05T13:07:35.798Z,36.03
2022-08-05T13:09:50.445Z,36.09
2022-08-05T13:12:16.234Z,36.04
2022-08-05T13:14:39.565Z,35.75
2022-08-05T13:17:05.975Z,35.30
2022-08-05T13:19:51.760Z,35.07
2022-08-05T13:21:58.803Z,34.74
2022-08-05T13:24:36.529Z,33.97
2022-08-05T13:26:51.546Z,33.75
2022-08-05T13:29:18.977Z,33.39
2022-08-05T13:32:04.178Z,33.61
2022-08-05T13:34:20.920Z,33.85
2022-08-05T13:36:37.161Z,34.08
2022-08-05T13:39:08.390Z,34.16
2022-08-05T13:41:37.438Z,34.19
2022-08-05T13:43:56.396Z,34.20
2022-08-05T13:47:01.835Z,34.07
2022-08-05T13:48:58.906Z,33.79
2022-08-05T13:51:15.669Z,33.51
2022-08-05T13:53:47.437Z,33.39
2022-08-05T13:56:18.081Z,33.34
2022-08-05T13:58:34.770Z,33.45
2022-08-05T14:01:01.169Z,33.61
2022-08-05T14:03:27.580Z,33.70
2022-08-05T14:06:25.765Z,33.78
2022-08-05T14:08:27.743Z,33.66
2022-08-05T14:10:46.651Z,33.63
2022-08-05T14:13:13.072Z,33.77
2022-08-05T14:16:05.724Z,33.45
2022-08-05T14:18:05.886Z,33.31
2022-08-05T14:20:32.273Z,33.28
2022-08-05T14:22:58.656Z,33.31
2022-08-05T14:25:28.036Z,33.25
2022-08-05T14:27:51.520Z,33.15
2022-08-05T14:30:20.488Z,32.93
2022-08-05T14:32:44.338Z,32.90
2022-08-05T14:35:11.418Z,32.98
2022-08-05T14:37:45.713Z,33.07
2022-08-05T14:40:03.502Z,33.20
2022-08-05T14:42:29.982Z,33.24
2022-08-05T14:44:56.702Z,33.23
2022-08-05T14:48:02.632Z,32.99
2022-08-05T14:49:59.172Z,32.88
2022-08-05T14:52:30.582Z,32.94
2022-08-05T14:54:53.307Z,33.06
2022-08-05T14:57:09.803Z,33.11
2022-08-05T14:59:35.490Z,33.03
2022-08-05T15:02:01.090Z,33.00
2022-08-05T15:04:29.121Z,33.03
2022-08-05T15:06:53.759Z,32.99
2022-08-05T15:09:51.531Z,32.93
2022-08-05T15:11:52.767Z,32.94
2022-08-05T15:14:34.210Z,33.01
2022-08-05T15:16:39.298Z,32.99
2022-08-05T15:19:05.672Z,32.99
2022-08-05T15:21:32.073Z,33.02
2022-08-05T15:23:58.457Z,32.99
2022-08-05T15:26:32.106Z,33.03
2022-08-05T15:28:52.068Z,32.98
2022-08-05T15:31:17.594Z,32.92
2022-08-05T15:34:05.247Z,32.96
2022-08-05T15:36:17.289Z,32.89
2022-08-05T15:38:41.775Z,32.81
2022-08-05T15:41:22.322Z,32.63
2022-08-05T15:43:29.761Z,32.52
2022-08-05T15:46:00.078Z,32.53
2022-08-05T15:48:22.403Z,32.52
2022-08-05T15:50:48.806Z,32.51
2022-08-05T15:53:15.197Z,32.44
2022-08-05T15:56:02.909Z,32.34
2022-08-05T15:58:08.014Z,32.28
2022-08-05T16:00:50.326Z,32.19
2022-08-05T16:03:00.910Z,32.17
2022-08-05T16:05:28.445Z,32.14
2022-08-05T16:07:53.619Z,32.13
2022-08-05T16:10:25.325Z,32.09
2022-08-05T16:12:46.456Z,31.99
2022-08-05T16:15:18.161Z,31.96
2022-08-05T16:17:39.210Z,31.94
2022-08-05T16:20:11.243Z,31.90
2022-08-05T16:22:33.760Z,31.81
2022-08-05T16:24:58.356Z,31.70
2022-08-05T16:27:32.332Z,31.65
2022-08-05T16:29:51.373Z,31.61
2022-08-05T16:32:17.554Z,31.50
2022-08-05T16:34:43.922Z,31.37
2022-08-05T16:38:01.885Z,31.28
2022-08-05T16:40:04.969Z,31.23
2022-08-05T16:42:14.698Z,31.16
2022-08-05T16:44:29.461Z,31.12
2022-08-05T16:46:56.385Z,31.04
2022-08-05T16:49:22.359Z,31.00
2022-08-05T16:51:51.380Z,31.00
2022-08-05T16:54:18.575Z,30.89
2022-08-05T16:56:41.872Z,30.83
2022-08-05T16:59:08.697Z,30.79
2022-08-05T17:01:54.673Z,30.72
2022-08-05T17:04:00.724Z,30.62
2022-08-05T17:06:27.085Z,30.58
2022-08-05T17:08:54.608Z,30.52
2022-08-05T17:11:19.828Z,30.42
2022-08-05T17:13:46.207Z,30.33
2022-08-05T17:16:29.756Z,30.27
2022-08-05T17:18:39.075Z,30.21
2022-08-05T17:21:05.475Z,30.11
2022-08-05T17:24:04.959Z,30.06
2022-08-05T17:25:58.224Z,30.00
2022-08-05T17:28:24.661Z,29.89
2022-08-05T17:30:52.360Z,29.84
2022-08-05T17:33:17.409Z,29.76
2022-08-05T17:36:08.159Z,29.68
2022-08-05T17:38:10.282Z,29.59
2022-08-05T17:40:36.689Z,29.51
2022-08-05T17:43:03.096Z,29.47
2022-08-05T17:45:37.893Z,29.46
2022-08-05T17:47:56.381Z,29.44
2022-08-05T17:50:27.777Z,29.41
2022-08-05T17:52:52.868Z,29.36
2022-08-05T17:55:15.118Z,29.31
2022-08-05T17:57:41.543Z,29.28
2022-08-05T18:00:07.933Z,29.26
2022-08-05T18:02:34.410Z,29.24
2022-08-05T18:05:01.078Z,29.19
2022-08-05T18:07:32.970Z,29.13
2022-08-05T18:09:59.446Z,29.02
2022-08-05T18:12:24.303Z,28.93
2022-08-05T18:14:46.446Z,28.88
2022-08-05T18:18:00.134Z,28.81
2022-08-05T18:19:39.040Z,28.77
2022-08-05T18:22:08.499Z,28.67
2022-08-05T18:24:31.805Z,28.62
2022-08-05T18:26:58.224Z,28.47
2022-08-05T18:29:40.406Z,28.30
2022-08-05T18:31:51.040Z,28.14
2022-08-05T18:34:17.529Z,28.15
2022-08-05T18:36:43.899Z,28.27
2022-08-05T18:39:42.591Z,28.33
2022-08-05T18:42:00.435Z,28.28
2022-08-05T18:44:05.840Z,28.27
2022-08-05T18:46:29.377Z,28.20
2022-08-05T18:48:55.769Z,28.17
2022-08-05T18:52:03.340Z,28.14
2022-08-05T18:53:50.388Z,28.08
2022-08-05T18:56:14.935Z,28.04
2022-08-05T18:58:43.003Z,28.02
2022-08-05T19:01:08.068Z,27.99
2022-08-05T19:03:55.015Z,27.96
2022-08-05T19:06:11.605Z,27.90
2022-08-05T19:08:30.843Z,27.82
2022-08-05T19:10:53.797Z,27.73
2022-08-05T19:13:20.163Z,27.69
2022-08-05T19:15:58.260Z,27.62
2022-08-05T19:18:21.059Z,27.50
2022-08-05T19:20:41.440Z,27.38
2022-08-05T19:23:07.949Z,27.28
2022-08-05T19:25:41.917Z,27.07
2022-08-05T19:27:58.554Z,26.94
2022-08-05T19:30:24.976Z,26.83
2022-08-05T19:32:51.337Z,26.82
2022-08-05T19:35:17.729Z,26.78
2022-08-05T19:38:04.234Z,26.76
2022-08-05T19:40:10.844Z,26.75
2022-08-05T19:42:37.074Z,26.75
2022-08-05T19:45:06.014Z,26.44
2022-08-05T19:47:29.759Z,26.27
2022-08-05T19:49:57.167Z,26.34
2022-08-05T19:52:31.242Z,26.36
2022-08-05T19:54:48.969Z,26.31
2022-08-05T19:57:15.437Z,26.31
2022-08-05T19:59:56.536Z,26.24
2022-08-05T20:02:08.186Z,26.06
2022-08-05T20:04:34.626Z,26.03
2022-08-05T20:07:01.032Z,26.08
2022-08-05T20:09:27.424Z,26.02
2022-08-05T20:11:53.786Z,26.04
2022-08-05T20:14:23.519Z,26.04
2022-08-05T20:16:46.561Z,25.96
2022-08-05T20:19:12.978Z,25.91
2022-08-05T20:21:39.372Z,25.85
2022-08-05T20:24:05.743Z,25.87
2022-08-05T20:26:32.259Z,25.86
2022-08-05T20:29:00.765Z,25.82
2022-08-05T20:31:37.341Z,25.76
2022-08-05T20:33:51.431Z,25.69
2022-08-05T20:36:18.110Z,25.63
2022-08-05T20:38:54.611Z,25.61
2022-08-05T20:41:10.718Z,25.59
2022-08-05T20:43:59.824Z,25.56
2022-08-05T20:46:03.493Z,25.53
2022-08-05T20:48:29.857Z,25.53
2022-08-05T20:50:56.241Z,25.53
2022-08-05T20:53:36.270Z,25.37
2022-08-05T20:56:07.738Z,25.22
2022-08-05T20:58:15.418Z,25.10
2022-08-05T21:00:49.719Z,25.14
2022-08-05T21:03:08.351Z,24.96
2022-08-05T21:05:47.883Z,24.93
2022-08-05T21:08:00.977Z,24.89
2022-08-05T21:10:27.359Z,24.87
2022-08-05T21:13:08.186Z,24.92
2022-08-05T21:15:20.123Z,24.83
2022-08-05T21:17:46.494Z,24.73
2022-08-05T21:20:12.865Z,24.73
2022-08-05T21:22:39.263Z,24.67
2022-08-05T21:25:05.938Z,24.58
2022-08-05T21:27:38.645Z,24.59
2022-08-05T21:29:58.554Z,24.54
2022-08-05T21:32:27.091Z,24.47
2022-08-05T21:35:08.390Z,24.40
2022-08-05T21:37:17.724Z,24.33
2022-08-05T21:39:44.121Z,24.36
2022-08-05T21:42:19.826Z,24.35
2022-08-05T21:44:36.842Z,24.24
2022-08-05T21:47:03.216Z,24.16
2022-08-05T21:49:59.501Z,24.10
2022-08-05T21:52:22.133Z,24.10
2022-08-05T21:54:27.835Z,24.09
2022-08-05T21:56:51.464Z,23.96
2022-08-05T21:59:24.252Z,23.84
2022-08-05T22:01:41.657Z,23.90
2022-08-05T22:04:07.953Z,23.83
2022-08-05T22:06:35.660Z,23.65
2022-08-05T22:09:00.824Z,23.41
2022-08-05T22:11:34.992Z,23.38
2022-08-05T22:14:19.619Z,23.51
2022-08-05T22:16:41.133Z,23.42
2022-08-05T22:18:49.233Z,23.23
2022-08-05T22:21:18.618Z,23.23
2022-08-05T22:24:01.180Z,23.16
2022-08-05T22:26:10.745Z,23.20
2022-08-05T22:28:32.027Z,23.02
2022-08-05T22:31:05.109Z,22.92
2022-08-05T22:33:58.513Z,22.91
2022-08-05T22:35:51.280Z,23.05
2022-08-05T22:38:19.667Z,22.93
2022-08-05T22:40:49.565Z,22.85
2022-08-05T22:43:10.384Z,22.79
2022-08-05T22:45:36.753Z,22.85
2022-08-05T22:48:03.117Z,22.91
2022-08-05T22:50:29.509Z,22.77
2022-08-05T22:52:55.944Z,22.82
2022-08-05T22:55:22.320Z,22.87
2022-08-05T22:57:48.983Z,23.08
2022-08-05T23:00:17.781Z,23.06
2022-08-05T23:02:46.478Z,22.82
2022-08-05T23:05:07.946Z,22.75
2022-08-05T23:07:43.825Z,22.66
2022-08-05T23:10:01.403Z,22.83
2022-08-05T23:12:28.630Z,22.89
2022-08-05T23:14:53.383Z,22.49
2022-08-05T23:17:24.068Z,22.40
2022-08-05T23:19:50.925Z,22.39
2022-08-05T23:22:12.510Z,22.45
2022-08-05T23:24:38.963Z,22.22
2022-08-05T23:27:05.342Z,22.40
2022-08-05T23:29:34.599Z,22.40
2022-08-05T23:31:58.258Z,22.33
2022-08-05T23:34:24.948Z,22.28
2022-08-05T23:36:50.997Z,22.37
2022-08-05T23:39:31.988Z,22.39
2022-08-05T23:41:48.574Z,22.24
2022-08-05T23:44:10.168Z,22.19
2022-08-05T23:46:37.516Z,22.12
2022-08-05T23:49:16.133Z,22.06
2022-08-05T23:51:29.309Z,22.04
2022-08-05T23:54:01.064Z,22.13
2022-08-05T23:56:27.490Z,22.08
2022-08-05T23:58:48.465Z,22.08
